Time;durP1;ratioP1;P1;durP2;ratioP2;P2;SDS_P1;SDS_P2;PMS_P1;PMS_P2;Temp;Humidity;BMP_temperature;BMP_pressure;BME280_temperature;BME280_humidity;BME280_pressure;Samples;Min_cycle;Max_cycle;Signal;HPM_P1;HPM_P2
2021/09/19 00:00:53;;;;;;;4.10;3.38;;;12.30;99.90;;;;;;5030936;28;20029;-54
2021/09/19 00:03:19;;;;;;;3.97;3.35;;;12.30;99.90;;;;;;5013527;28;20026;-52
2021/09/19 00:05:44;;;;;;;3.92;3.42;;;12.20;99.90;;;;;;5031037;28;20399;-54
2021/09/19 00:08:11;;;;;;;8.63;3.95;;;12.30;99.90;;;;;;5031166;28;20531;-53
2021/09/19 00:10:37;;;;;;;5.15;3.15;;;12.20;99.90;;;;;;5030269;28;20027;-53
2021/09/19 00:13:03;;;;;;;8.73;4.45;;;12.20;99.90;;;;;;5031176;28;20104;-52
2021/09/19 00:15:28;;;;;;;4.68;3.35;;;12.30;99.90;;;;;;5030656;28;20072;-52
2021/09/19 00:17:54;;;;;;;4.60;3.42;;;12.30;99.90;;;;;;5030988;28;20067;-54
2021/09/19 00:20:19;;;;;;;3.42;2.95;;;12.30;99.90;;;;;;5030444;28;20048;-52
2021/09/19 00:22:45;;;;;;;5.95;3.72;;;12.30;99.90;;;;;;5025030;28;20022;-54
2021/09/19 00:25:12;;;;;;;3.58;2.92;;;12.30;99.90;;;;;;5010028;28;20025;-53
2021/09/19 00:27:38;;;;;;;6.60;3.75;;;12.30;99.90;;;;;;5027223;28;20026;-53
2021/09/19 00:30:05;;;;;;;3.42;2.72;;;12.30;99.90;;;;;;5027885;28;20052;-53
2021/09/19 00:32:31;;;;;;;3.30;2.75;;;12.30;99.90;;;;;;5017029;28;20073;-52
2021/09/19 00:34:56;;;;;;;4.90;3.50;;;12.30;99.90;;;;;;5028990;28;20052;-56
2021/09/19 00:37:22;;;;;;;3.72;3.17;;;12.30;99.90;;;;;;5017320;28;20112;-54
2021/09/19 00:39:48;;;;;;;12.05;3.75;;;12.30;99.90;;;;;;5024901;28;20025;-52
2021/09/19 00:42:13;;;;;;;4.60;2.83;;;12.30;99.90;;;;;;5030451;28;20443;-51
2021/09/19 00:44:41;;;;;;;3.63;2.83;;;12.30;99.90;;;;;;5024252;28;20045;-51
2021/09/19 00:47:06;;;;;;;6.03;3.10;;;12.30;99.90;;;;;;5017187;28;20018;-55
2021/09/19 00:49:32;;;;;;;5.30;3.53;;;12.30;99.90;;;;;;5028833;28;20079;-53
2021/09/19 00:51:57;;;;;;;3.97;2.90;;;12.30;99.90;;;;;;5020983;28;20037;-55
2021/09/19 00:54:23;;;;;;;5.63;2.75;;;12.30;99.90;;;;;;5012240;28;20022;-51
2021/09/19 00:56:56;;;;;;;4.65;3.20;;;12.30;99.90;;;;;;5028034;28;20028;-52
2021/09/19 00:59:23;;;;;;;4.05;3.15;;;12.30;99.90;;;;;;5017097;28;20074;-55
2021/09/19 01:01:52;;;;;;;4.55;2.90;;;12.30;99.90;;;;;;5019675;28;20029;-55
2021/09/19 01:04:19;;;;;;;3.38;3.08;;;12.20;99.90;;;;;;5019172;28;20104;-51
2021/09/19 01:06:45;;;;;;;3.13;2.65;;;12.20;99.90;;;;;;5027269;28;20029;-57
2021/09/19 01:09:12;;;;;;;4.25;3.10;;;12.20;99.90;;;;;;5020598;28;20021;-52
2021/09/19 01:11:39;;;;;;;3.50;2.70;;;12.30;99.90;;;;;;5019806;28;20033;-51
2021/09/19 01:14:05;;;;;;;3.90;3.28;;;12.30;99.90;;;;;;5029366;28;20029;-52
2021/09/19 01:16:31;;;;;;;6.10;2.90;;;12.20;99.90;;;;;;5024240;28;20026;-54
2021/09/19 01:19:02;;;;;;;4.60;2.75;;;12.20;99.90;;;;;;5018305;28;20096;-53
2021/09/19 01:21:27;;;;;;;3.42;3.13;;;12.20;99.90;;;;;;5025987;28;20128;-54
2021/09/19 01:24:02;;;;;;;4.75;3.15;;;12.20;99.90;;;;;;5019251;28;20491;-52
2021/09/19 01:26:29;;;;;;;4.55;3.47;;;12.20;99.90;;;;;;5025986;28;20026;-54
2021/09/19 01:28:55;;;;;;;5.75;3.03;;;12.20;99.90;;;;;;5019402;28;20057;-50
2021/09/19 01:31:21;;;;;;;7.93;3.53;;;12.20;99.90;;;;;;5029646;28;20055;-51
2021/09/19 01:33:46;;;;;;;4.38;2.85;;;12.20;99.90;;;;;;5029401;28;20547;-54
2021/09/19 01:36:13;;;;;;;4.97;3.40;;;12.20;99.90;;;;;;5021509;28;20113;-54
2021/09/19 01:38:39;;;;;;;5.10;3.47;;;12.20;99.90;;;;;;5029130;28;20025;-54
2021/09/19 01:41:05;;;;;;;5.32;3.30;;;12.20;99.90;;;;;;5029134;28;20025;-54
2021/09/19 01:43:31;;;;;;;7.40;3.67;;;12.20;99.90;;;;;;5028535;28;20693;-54
2021/09/19 01:46:04;;;;;;;5.45;2.90;;;12.10;99.90;;;;;;5014246;28;20508;-52
2021/09/19 01:48:35;;;;;;;3.80;3.00;;;12.10;99.90;;;;;;5031703;28;20522;-52
2021/09/19 01:51:01;;;;;;;4.97;2.92;;;12.20;99.90;;;;;;5015106;28;20131;-54
2021/09/19 01:53:27;;;;;;;5.00;3.40;;;12.10;99.90;;;;;;5033941;28;20044;-53
2021/09/19 01:55:53;;;;;;;5.03;3.72;;;12.10;99.90;;;;;;5033270;28;20709;-53
2021/09/19 01:58:18;;;;;;;5.03;3.28;;;12.20;99.90;;;;;;5033368;28;20086;-53
2021/09/19 02:00:45;;;;;;;4.88;2.83;;;12.10;99.90;;;;;;5021100;28;20450;-54
2021/09/19 02:03:11;;;;;;;4.65;3.92;;;12.10;99.90;;;;;;5033544;28;20384;-51
2021/09/19 02:05:36;;;;;;;5.03;3.30;;;12.10;99.90;;;;;;5033341;28;20027;-53
2021/09/19 02:08:02;;;;;;;4.30;3.70;;;12.10;99.90;;;;;;5033297;28;20500;-54
2021/09/19 02:10:27;;;;;;;4.82;3.33;;;12.10;99.90;;;;;;5015240;28;20041;-52
2021/09/19 02:12:53;;;;;;;4.57;3.28;;;12.10;99.90;;;;;;5015695;28;20045;-52
2021/09/19 02:15:19;;;;;;;6.13;3.88;;;12.10;99.90;;;;;;5033066;28;20061;-50
2021/09/19 02:17:45;;;;;;;5.05;3.40;;;12.10;99.90;;;;;;5033251;28;20502;-51
2021/09/19 02:20:13;;;;;;;3.97;3.30;;;12.10;99.90;;;;;;5032968;28;20519;-53
2021/09/19 02:22:39;;;;;;;6.15;3.28;;;12.10;99.90;;;;;;5033379;28;20480;-53
2021/09/19 02:25:05;;;;;;;3.20;2.83;;;12.10;99.90;;;;;;5033085;28;20525;-51
2021/09/19 02:27:31;;;;;;;5.00;3.50;;;12.10;99.90;;;;;;5026652;28;20026;-55
2021/09/19 02:29:57;;;;;;;5.45;3.30;;;12.10;99.90;;;;;;5041944;28;20479;-53
2021/09/19 02:32:22;;;;;;;5.82;3.85;;;12.10;99.90;;;;;;5034897;28;20028;-54
2021/09/19 02:34:48;;;;;;;5.68;3.85;;;12.10;99.90;;;;;;5053092;28;20035;-53
2021/09/19 02:37:13;;;;;;;4.53;3.90;;;12.10;99.90;;;;;;5052308;28;20479;-55
2021/09/19 02:39:39;;;;;;;6.85;3.30;;;12.10;99.90;;;;;;5052422;28;20391;-52
2021/09/19 02:42:05;;;;;;;4.18;3.35;;;12.10;99.90;;;;;;5052764;28;20092;-53
2021/09/19 02:44:30;;;;;;;4.55;3.38;;;12.10;99.90;;;;;;5052803;28;20071;-51
2021/09/19 02:46:56;;;;;;;5.63;3.35;;;12.10;99.90;;;;;;5022206;28;20054;-51
2021/09/19 02:49:21;;;;;;;5.15;3.05;;;12.00;99.90;;;;;;5027373;28;20092;-53
2021/09/19 02:51:47;;;;;;;5.88;3.33;;;12.10;99.90;;;;;;5040977;22;20617;-50
2021/09/19 02:54:13;;;;;;;6.00;3.33;;;12.10;99.90;;;;;;5025504;28;20080;-49
2021/09/19 02:56:38;;;;;;;3.75;2.88;;;12.00;99.90;;;;;;5032450;28;20044;-47
2021/09/19 02:59:04;;;;;;;6.38;3.00;;;12.00;99.90;;;;;;5031862;28;20021;-51
2021/09/19 03:01:29;;;;;;;4.82;2.50;;;12.00;99.90;;;;;;5032115;28;20056;-50
2021/09/19 03:03:55;;;;;;;3.42;2.53;;;12.00;99.90;;;;;;5032600;28;20030;-50
2021/09/19 03:06:21;;;;;;;5.65;3.25;;;12.00;99.90;;;;;;5021083;28;20057;-47
2021/09/19 03:08:48;;;;;;;4.53;2.85;;;12.00;99.90;;;;;;5023753;28;20060;-48
2021/09/19 03:11:14;;;;;;;4.97;2.72;;;12.10;99.90;;;;;;5031482;28;20094;-47
2021/09/19 03:13:39;;;;;;;3.85;2.80;;;12.00;99.90;;;;;;5032161;28;20033;-46
2021/09/19 03:16:05;;;;;;;4.28;2.50;;;12.00;99.90;;;;;;5031945;28;20116;-48
2021/09/19 03:18:31;;;;;;;6.95;2.92;;;12.00;99.90;;;;;;5032227;28;20061;-46
2021/09/19 03:20:56;;;;;;;4.82;3.03;;;12.00;99.90;;;;;;5032063;28;20029;-48
2021/09/19 03:23:22;;;;;;;3.40;2.90;;;12.00;99.90;;;;;;5032103;28;20030;-49
2021/09/19 03:25:47;;;;;;;4.65;2.95;;;11.90;99.90;;;;;;5013760;28;20113;-49
2021/09/19 03:28:13;;;;;;;5.15;2.78;;;11.90;99.90;;;;;;5031641;28;20189;-47
2021/09/19 03:30:39;;;;;;;3.83;2.90;;;11.90;99.90;;;;;;5031555;28;20029;-50
2021/09/19 03:33:04;;;;;;;3.92;2.92;;;11.90;99.90;;;;;;5031561;28;20033;-51
2021/09/19 03:35:30;;;;;;;3.22;2.78;;;11.90;99.90;;;;;;5031556;28;20068;-51
2021/09/19 03:37:56;;;;;;;5.13;2.92;;;11.90;99.90;;;;;;5030762;28;20022;-48
2021/09/19 03:40:21;;;;;;;4.68;3.60;;;11.90;99.90;;;;;;5031042;28;20025;-48
2021/09/19 03:42:50;;;;;;;7.60;3.50;;;11.90;99.90;;;;;;5013461;28;20022;-48
2021/09/19 03:45:15;;;;;;;6.22;3.67;;;11.90;99.90;;;;;;5031179;28;20017;-49
2021/09/19 03:47:41;;;;;;;3.67;2.88;;;11.90;99.90;;;;;;5031235;28;20649;-48
2021/09/19 03:50:08;;;;;;;4.10;2.92;;;11.90;99.90;;;;;;5030870;28;20025;-49
2021/09/19 03:52:34;;;;;;;4.30;3.50;;;11.90;99.90;;;;;;5030832;28;20060;-48
2021/09/19 03:54:59;;;;;;;5.70;3.72;;;11.90;99.90;;;;;;5031012;28;20443;-53
2021/09/19 03:57:25;;;;;;;4.85;3.45;;;11.80;99.90;;;;;;5030985;28;20120;-53
2021/09/19 03:59:50;;;;;;;4.05;3.13;;;11.80;99.90;;;;;;5030832;28;20068;-49
2021/09/19 04:02:16;;;;;;;8.48;2.85;;;11.80;99.90;;;;;;5028616;28;20112;-46
2021/09/19 04:04:41;;;;;;;7.75;2.97;;;11.80;99.90;;;;;;5018879;28;20025;-48
2021/09/19 04:07:07;;;;;;;3.47;2.85;;;11.80;99.90;;;;;;5031116;28;20017;-51
2021/09/19 04:09:33;;;;;;;5.75;3.80;;;11.90;99.90;;;;;;5029987;28;20369;-50
2021/09/19 04:11:58;;;;;;;5.30;3.15;;;11.90;99.90;;;;;;5012490;28;20508;-52
2021/09/19 04:14:24;;;;;;;3.95;2.80;;;11.90;99.90;;;;;;5030423;28;20021;-51
2021/09/19 04:16:49;;;;;;;4.45;2.80;;;11.90;99.90;;;;;;5030727;28;20021;-53
2021/09/19 04:19:15;;;;;;;6.53;2.83;;;11.90;99.90;;;;;;5029945;28;20064;-47
2021/09/19 04:21:41;;;;;;;2.90;2.40;;;11.90;99.90;;;;;;5030601;28;20022;-50
2021/09/19 04:24:07;;;;;;;4.65;2.70;;;11.90;99.90;;;;;;5030070;28;20029;-48
2021/09/19 04:26:32;;;;;;;4.95;3.33;;;11.90;99.90;;;;;;5018618;28;20113;-51
2021/09/19 04:28:58;;;;;;;4.00;2.90;;;11.90;99.90;;;;;;5023508;28;20033;-50
2021/09/19 04:31:23;;;;;;;3.70;2.75;;;11.90;99.90;;;;;;5020232;28;20559;-49
2021/09/19 04:33:49;;;;;;;3.53;2.60;;;11.90;99.90;;;;;;5028422;28;20052;-49
2021/09/19 04:36:14;;;;;;;5.40;2.58;;;11.90;99.90;;;;;;5030508;28;20029;-50
2021/09/19 04:38:40;;;;;;;4.70;3.50;;;11.90;99.90;;;;;;5030124;28;20238;-46
2021/09/19 04:41:05;;;;;;;4.30;2.70;;;11.90;99.90;;;;;;5029951;28;20130;-48
2021/09/19 04:43:31;;;;;;;4.35;3.28;;;11.90;99.90;;;;;;5030098;28;20494;-48
2021/09/19 04:45:57;;;;;;;3.97;3.08;;;11.90;99.90;;;;;;5029937;28;20029;-51
2021/09/19 04:48:22;;;;;;;3.97;2.92;;;11.90;99.90;;;;;;5029916;28;20038;-50
2021/09/19 04:50:48;;;;;;;4.05;2.58;;;11.90;99.90;;;;;;5029668;28;20040;-50
2021/09/19 04:53:14;;;;;;;3.40;2.78;;;11.90;99.90;;;;;;5029617;28;20120;-51
2021/09/19 04:55:40;;;;;;;7.57;2.83;;;11.90;99.90;;;;;;5029899;28;20173;-47
2021/09/19 04:58:05;;;;;;;5.07;2.90;;;11.90;99.90;;;;;;5029714;28;20150;-49
2021/09/19 05:00:31;;;;;;;2.72;2.42;;;11.90;99.90;;;;;;5029660;28;20025;-52
2021/09/19 05:02:56;;;;;;;3.28;2.53;;;11.90;99.90;;;;;;5012015;28;20025;-49
2021/09/19 05:05:22;;;;;;;3.65;2.50;;;11.90;99.90;;;;;;5030024;28;20029;-47
2021/09/19 05:07:50;;;;;;;3.35;2.30;;;11.90;99.90;;;;;;5029923;28;20036;-53
2021/09/19 05:10:16;;;;;;;3.88;2.78;;;11.90;99.90;;;;;;5029585;28;20049;-49
2021/09/19 05:12:41;;;;;;;3.15;2.40;;;11.80;99.90;;;;;;5029605;28;20061;-49
2021/09/19 05:15:07;;;;;;;4.35;3.17;;;11.90;99.90;;;;;;5029079;28;20029;-47
2021/09/19 05:17:33;;;;;;;2.95;2.38;;;11.90;99.90;;;;;;5029347;28;20036;-48
2021/09/19 05:19:59;;;;;;;4.57;3.15;;;11.90;99.90;;;;;;5028902;28;20029;-47
2021/09/19 05:22:24;;;;;;;2.83;2.25;;;11.90;99.90;;;;;;5022418;28;20030;-50
2021/09/19 05:24:50;;;;;;;2.72;2.35;;;11.90;99.90;;;;;;5023769;28;20033;-47
2021/09/19 05:27:16;;;;;;;3.38;2.40;;;11.80;99.90;;;;;;5016184;28;20480;-51
2021/09/19 05:29:41;;;;;;;5.00;2.92;;;11.80;99.90;;;;;;5017347;28;20085;-47
2021/09/19 05:32:07;;;;;;;3.85;2.45;;;11.70;99.90;;;;;;5027399;28;20392;-49
2021/09/19 05:34:32;;;;;;;7.35;3.30;;;11.70;99.90;;;;;;5029224;28;20018;-47
2021/09/19 05:36:59;;;;;;;4.25;2.60;;;11.70;99.90;;;;;;5029168;28;20097;-48
2021/09/19 05:39:25;;;;;;;3.20;2.22;;;11.70;99.90;;;;;;5010536;28;20119;-48
2021/09/19 05:41:51;;;;;;;3.33;2.80;;;11.70;99.90;;;;;;5029268;28;20053;-49
2021/09/19 05:44:17;;;;;;;3.08;2.42;;;11.70;99.90;;;;;;5029522;28;20018;-46
2021/09/19 05:46:43;;;;;;;3.75;2.55;;;11.80;99.90;;;;;;5029346;28;20041;-47
2021/09/19 05:49:08;;;;;;;3.80;2.92;;;11.80;99.90;;;;;;5028939;28;20033;-48
2021/09/19 05:51:34;;;;;;;3.65;2.63;;;11.70;99.90;;;;;;5011269;28;20025;-53
2021/09/19 05:53:59;;;;;;;4.13;3.10;;;11.70;99.90;;;;;;5029292;28;20548;-47
2021/09/19 05:56:25;;;;;;;4.20;3.25;;;11.80;99.90;;;;;;5029212;28;20480;-48
2021/09/19 05:58:51;;;;;;;4.45;2.85;;;11.70;99.90;;;;;;5029125;28;20107;-47
2021/09/19 06:01:16;;;;;;;5.20;3.17;;;11.80;99.90;;;;;;5011424;28;20052;-54
2021/09/19 06:03:42;;;;;;;5.25;2.80;;;11.70;99.90;;;;;;5029122;28;20026;-49
2021/09/19 06:06:08;;;;;;;4.60;3.25;;;11.70;99.90;;;;;;5029186;28;20574;-51
2021/09/19 06:08:33;;;;;;;4.18;2.75;;;11.80;99.90;;;;;;5011224;28;20025;-49
2021/09/19 06:10:59;;;;;;;4.20;2.97;;;11.80;99.90;;;;;;5029101;28;20026;-52
2021/09/19 06:13:24;;;;;;;4.25;3.05;;;11.80;99.90;;;;;;5029398;28;20030;-47
2021/09/19 06:15:50;;;;;;;3.53;2.38;;;11.80;99.90;;;;;;5029441;28;20034;-48
2021/09/19 06:18:16;;;;;;;5.30;2.83;;;11.90;99.90;;;;;;5028819;28;20022;-49
2021/09/19 06:20:41;;;;;;;4.32;3.05;;;11.90;99.90;;;;;;5028644;28;20029;-52
2021/09/19 06:23:07;;;;;;;5.85;3.15;;;11.90;99.90;;;;;;5028934;28;20033;-51
2021/09/19 06:25:34;;;;;;;4.82;2.92;;;11.90;99.90;;;;;;5028700;28;20499;-52
2021/09/19 06:28:00;;;;;;;3.42;2.78;;;11.90;99.90;;;;;;5028936;28;20056;-50
2021/09/19 06:30:26;;;;;;;3.58;2.42;;;12.00;99.90;;;;;;5028486;28;20547;-47
2021/09/19 06:32:52;;;;;;;3.97;2.72;;;12.00;99.90;;;;;;5011149;28;20091;-48
2021/09/19 06:35:18;;;;;;;4.35;2.85;;;12.00;99.90;;;;;;5032218;28;20025;-47
2021/09/19 06:37:44;;;;;;;4.00;3.03;;;12.10;99.90;;;;;;5029692;28;20036;-49
2021/09/19 06:40:11;;;;;;;3.10;2.58;;;12.00;99.90;;;;;;5029964;28;20045;-48
2021/09/19 06:42:36;;;;;;;2.95;2.50;;;12.10;99.90;;;;;;5030845;28;20017;-48
2021/09/19 06:45:03;;;;;;;4.93;2.53;;;12.00;99.90;;;;;;5032328;28;20434;-50
2021/09/19 06:47:28;;;;;;;5.65;2.90;;;12.10;99.90;;;;;;5032371;28;20076;-50
2021/09/19 06:49:54;;;;;;;4.00;2.78;;;12.10;99.90;;;;;;5032062;28;20496;-53
2021/09/19 06:52:21;;;;;;;5.35;2.45;;;12.10;99.90;;;;;;5032108;28;20068;-47
2021/09/19 06:54:47;;;;;;;3.90;2.60;;;12.10;99.90;;;;;;5014432;28;20029;-47
2021/09/19 06:57:12;;;;;;;5.40;2.75;;;12.10;99.90;;;;;;5032198;28;20029;-52
2021/09/19 06:59:38;;;;;;;3.55;2.33;;;12.10;99.90;;;;;;5031916;28;20045;-53
2021/09/19 07:02:04;;;;;;;3.97;2.70;;;12.10;99.90;;;;;;5032024;28;20037;-50
2021/09/19 07:04:30;;;;;;;4.57;3.00;;;12.10;99.90;;;;;;5031901;28;20495;-47
2021/09/19 07:06:55;;;;;;;4.72;2.78;;;12.20;99.90;;;;;;5031910;28;20037;-49
2021/09/19 07:09:21;;;;;;;3.65;2.65;;;12.20;99.90;;;;;;5031359;28;20025;-51
2021/09/19 07:11:46;;;;;;;4.00;2.70;;;12.30;99.90;;;;;;5031907;28;20225;-49
2021/09/19 07:14:12;;;;;;;4.55;2.53;;;12.30;99.90;;;;;;5031680;28;20045;-52
2021/09/19 07:16:38;;;;;;;3.30;2.50;;;12.30;99.90;;;;;;5031808;28;20021;-52
2021/09/19 07:19:03;;;;;;;4.35;2.60;;;12.30;99.90;;;;;;5031461;28;20033;-50
2021/09/19 07:21:29;;;;;;;4.60;2.50;;;12.30;99.90;;;;;;5032073;28;20025;-53
2021/09/19 07:23:55;;;;;;;5.38;2.75;;;12.30;99.90;;;;;;5031736;28;20406;-47
2021/09/19 07:26:20;;;;;;;3.03;2.63;;;12.40;99.90;;;;;;5014081;28;20400;-47
2021/09/19 07:28:47;;;;;;;5.38;2.80;;;12.40;99.90;;;;;;5031551;28;20101;-47
2021/09/19 07:31:12;;;;;;;4.57;2.45;;;12.40;99.90;;;;;;5031300;28;20025;-47
2021/09/19 07:33:38;;;;;;;3.42;2.15;;;12.40;99.90;;;;;;5013999;28;20033;-48
2021/09/19 07:36:05;;;;;;;4.95;2.58;;;12.50;99.90;;;;;;5031849;28;20096;-48
2021/09/19 07:38:32;;;;;;;4.93;2.67;;;12.50;99.90;;;;;;5031494;28;20041;-48
2021/09/19 07:40:58;;;;;;;3.88;2.25;;;12.60;99.90;;;;;;5031392;28;20064;-51
2021/09/19 07:43:24;;;;;;;4.25;2.50;;;12.60;99.90;;;;;;5031554;28;20352;-47
2021/09/19 07:45:49;;;;;;;3.78;2.35;;;12.60;99.90;;;;;;5030447;28;20025;-49
2021/09/19 07:48:17;;;;;;;3.38;2.25;;;12.60;99.90;;;;;;5031476;28;20271;-48
2021/09/19 07:50:43;;;;;;;3.13;2.13;;;12.70;99.90;;;;;;5031108;28;20017;-47
2021/09/19 07:53:09;;;;;;;4.18;2.28;;;12.70;99.90;;;;;;5031280;28;20129;-48
2021/09/19 07:55:35;;;;;;;3.10;2.58;;;12.70;99.90;;;;;;5031668;28;20033;-48
2021/09/19 07:58:01;;;;;;;4.47;3.13;;;12.70;99.90;;;;;;5031451;28;20120;-50
2021/09/19 08:00:28;;;;;;;7.28;2.88;;;12.80;99.90;;;;;;5030974;28;20503;-47
2021/09/19 08:02:54;;;;;;;3.50;2.67;;;12.80;99.90;;;;;;5031167;28;20030;-50
2021/09/19 08:05:22;;;;;;;4.20;2.85;;;12.90;99.90;;;;;;5031296;28;20097;-51
2021/09/19 08:07:47;;;;;;;3.90;2.65;;;12.90;99.90;;;;;;5030979;28;20041;-53
2021/09/19 08:10:14;;;;;;;4.22;2.50;;;12.90;99.90;;;;;;5030581;28;20191;-51
2021/09/19 08:12:41;;;;;;;5.00;3.10;;;13.00;99.90;;;;;;5030961;28;20028;-47
2021/09/19 08:15:08;;;;;;;4.38;2.97;;;13.00;99.90;;;;;;5030630;28;20025;-49
2021/09/19 08:17:34;;;;;;;4.15;2.45;;;13.00;99.90;;;;;;5030767;28;20448;-47
2021/09/19 08:19:59;;;;;;;3.22;2.55;;;13.00;99.90;;;;;;5030811;28;20027;-50
2021/09/19 08:22:25;;;;;;;5.13;2.90;;;13.10;99.90;;;;;;5030732;28;20391;-51
2021/09/19 08:24:50;;;;;;;3.20;2.83;;;13.10;99.90;;;;;;5030596;28;20041;-48
2021/09/19 08:27:16;;;;;;;2.55;2.33;;;13.10;99.90;;;;;;5031167;28;20021;-49
2021/09/19 08:29:42;;;;;;;4.63;3.03;;;13.10;99.90;;;;;;5030824;28;20060;-48
2021/09/19 08:32:07;;;;;;;6.07;3.00;;;13.20;99.90;;;;;;5030580;28;20662;-48
2021/09/19 08:34:36;;;;;;;3.10;2.40;;;13.20;99.90;;;;;;5030641;28;20033;-48
2021/09/19 08:37:03;;;;;;;6.72;3.00;;;13.20;99.90;;;;;;5030361;28;20144;-50
2021/09/19 08:39:29;;;;;;;3.95;2.35;;;13.30;99.90;;;;;;5029473;28;20122;-50
2021/09/19 08:41:55;;;;;;;7.75;3.38;;;13.30;99.90;;;;;;5030333;28;20057;-48
2021/09/19 08:44:20;;;;;;;3.75;2.53;;;13.40;99.90;;;;;;5013029;28;20028;-50
2021/09/19 08:46:46;;;;;;;3.13;2.35;;;13.40;99.90;;;;;;5030214;28;20415;-52
2021/09/19 08:49:14;;;;;;;4.70;2.45;;;13.50;99.90;;;;;;5030019;28;20028;-49
2021/09/19 08:51:40;;;;;;;4.80;2.55;;;13.50;99.90;;;;;;4996187;28;20025;-48
2021/09/19 08:54:06;;;;;;;4.88;2.75;;;13.60;99.90;;;;;;5035546;22;20065;-49
2021/09/19 08:56:31;;;;;;;4.00;3.03;;;13.60;99.90;;;;;;5029824;28;20083;-52
2021/09/19 08:58:57;;;;;;;4.03;2.90;;;13.70;99.90;;;;;;5030500;28;20026;-57
2021/09/19 09:01:23;;;;;;;3.40;2.35;;;13.70;99.90;;;;;;5030464;28;20033;-51
2021/09/19 09:03:49;;;;;;;3.63;2.70;;;13.70;99.90;;;;;;5030387;28;20018;-52
2021/09/19 09:06:18;;;;;;;9.88;2.58;;;13.80;99.90;;;;;;5030345;28;20025;-50
2021/09/19 09:08:44;;;;;;;3.58;3.13;;;13.80;99.90;;;;;;5012403;28;20041;-49
2021/09/19 09:11:11;;;;;;;5.88;3.38;;;13.80;99.90;;;;;;5012298;28;20083;-49
2021/09/19 09:13:39;;;;;;;2.47;2.17;;;13.80;99.90;;;;;;5012306;28;20061;-53
2021/09/19 09:16:17;;;;;;;3.35;2.75;;;13.90;99.90;;;;;;5012319;28;20033;-52
2021/09/19 09:18:52;;;;;;;4.43;2.60;;;13.90;99.90;;;;;;5029968;28;20033;-54
2021/09/19 09:21:19;;;;;;;3.72;2.72;;;14.00;99.90;;;;;;5029884;28;20022;-54
2021/09/19 09:23:50;;;;;;;3.58;2.45;;;14.00;99.90;;;;;;5030114;28;20060;-54
2021/09/19 09:26:27;;;;;;;4.10;2.78;;;14.10;99.90;;;;;;5012159;28;20361;-51
2021/09/19 09:28:54;;;;;;;2.53;2.15;;;14.10;99.90;;;;;;5029914;28;20025;-49
2021/09/19 09:31:22;;;;;;;5.05;2.40;;;14.10;99.90;;;;;;5029944;28;20037;-52
2021/09/19 09:34:08;;;;;;;3.65;2.70;;;14.20;99.90;;;;;;5030571;28;20029;-53
2021/09/19 09:36:40;;;;;;;5.28;2.67;;;14.20;99.90;;;;;;5030258;28;20026;-55
2021/09/19 09:39:39;;;;;;;2.70;2.15;;;14.20;99.90;;;;;;5029441;28;20491;-56
2021/09/19 09:42:09;;;;;;;3.85;2.50;;;14.30;99.90;;;;;;5030104;28;20516;-52
2021/09/19 09:44:40;;;;;;;2.38;2.15;;;14.40;99.90;;;;;;5029679;28;20029;-53
2021/09/19 09:47:21;;;;;;;3.30;2.72;;;14.50;99.90;;;;;;5029633;28;20018;-53
2021/09/19 09:50:05;;;;;;;2.97;2.30;;;14.50;99.90;;;;;;5029378;28;20059;-51
2021/09/19 09:52:34;;;;;;;1.90;1.77;;;14.50;99.90;;;;;;5029476;28;20025;-49
2021/09/19 09:55:10;;;;;;;2.92;2.70;;;14.60;99.90;;;;;;5012076;28;20069;-53
2021/09/19 09:57:35;;;;;;;5.50;2.97;;;14.70;99.90;;;;;;5011876;28;20064;-51
2021/09/19 10:00:11;;;;;;;4.60;2.70;;;14.70;99.90;;;;;;5029409;28;20087;-51
2021/09/19 10:02:39;;;;;;;2.42;1.83;;;14.70;99.90;;;;;;5029668;28;20022;-50
2021/09/19 10:05:06;;;;;;;2.65;2.13;;;14.70;99.90;;;;;;5030035;28;20096;-55
2021/09/19 10:07:33;;;;;;;2.92;2.38;;;14.70;99.90;;;;;;5011972;28;20057;-51
2021/09/19 10:10:00;;;;;;;3.25;2.17;;;14.70;99.90;;;;;;5032318;28;20530;-53
2021/09/19 10:12:26;;;;;;;3.92;2.55;;;14.70;99.90;;;;;;5015795;28;20640;-49
2021/09/19 10:14:52;;;;;;;3.15;2.10;;;14.70;99.90;;;;;;5033570;28;20033;-51
2021/09/19 10:17:22;;;;;;;3.85;2.10;;;14.70;99.90;;;;;;5033293;28;20037;-49
2021/09/19 10:19:49;;;;;;;3.67;2.35;;;14.70;99.90;;;;;;5033056;28;20014;-52
2021/09/19 10:22:24;;;;;;;4.35;2.08;;;14.70;99.90;;;;;;5032862;28;20021;-53
2021/09/19 10:24:50;;;;;;;3.60;2.10;;;14.80;99.90;;;;;;4998752;28;20171;-51
2021/09/19 10:27:23;;;;;;;2.80;2.20;;;14.80;99.90;;;;;;5033027;28;20104;-51
2021/09/19 10:30:04;;;;;;;2.95;2.50;;;14.80;99.90;;;;;;5032807;28;20403;-49
2021/09/19 10:32:40;;;;;;;3.83;2.58;;;14.90;99.90;;;;;;5032974;28;20377;-50
2021/09/19 10:35:18;;;;;;;2.85;2.30;;;14.90;99.90;;;;;;5033251;28;20029;-54
2021/09/19 10:38:03;;;;;;;2.88;2.20;;;14.90;99.90;;;;;;5033351;28;20479;-51
2021/09/19 10:40:38;;;;;;;4.55;2.22;;;15.00;99.90;;;;;;5032618;28;20031;-51
2021/09/19 10:43:20;;;;;;;3.28;2.00;;;15.00;99.90;;;;;;5032694;28;20091;-50
2021/09/19 10:45:51;;;;;;;2.63;1.80;;;14.90;99.90;;;;;;5015253;28;20407;-50
2021/09/19 10:48:32;;;;;;;3.70;2.50;;;14.90;99.90;;;;;;5032747;28;20030;-49
2021/09/19 10:51:08;;;;;;;6.60;2.35;;;15.00;99.90;;;;;;5032429;28;20510;-53
2021/09/19 10:53:48;;;;;;;2.65;2.10;;;14.90;99.90;;;;;;5014544;28;20044;-52
2021/09/19 10:56:13;;;;;;;6.00;2.40;;;14.90;99.90;;;;;;5032852;28;20040;-54
2021/09/19 10:58:44;;;;;;;3.58;2.42;;;15.00;99.90;;;;;;5032471;28;20025;-51
2021/09/19 11:01:25;;;;;;;3.55;2.38;;;15.00;99.90;;;;;;5032373;28;20108;-54
2021/09/19 11:04:00;;;;;;;3.40;2.67;;;15.10;99.90;;;;;;5032490;28;20020;-49
2021/09/19 11:06:40;;;;;;;6.40;3.25;;;15.20;99.90;;;;;;5015025;28;20082;-53
2021/09/19 11:09:28;;;;;;;2.08;1.88;;;15.20;99.90;;;;;;5032485;28;20040;-51
2021/09/19 11:12:22;;;;;;;5.00;2.47;;;15.40;99.90;;;;;;5032283;28;20646;-55
2021/09/19 11:15:05;;;;;;;4.78;2.10;;;15.40;99.90;;;;;;5029154;28;20564;-50
2021/09/19 11:17:34;;;;;;;5.28;2.55;;;15.40;99.90;;;;;;5032242;28;20021;-52
2021/09/19 11:20:14;;;;;;;2.17;1.98;;;15.50;99.90;;;;;;5031937;28;20025;-54
2021/09/19 11:22:46;;;;;;;5.15;2.58;;;15.50;99.90;;;;;;5031911;28;20217;-53
2021/09/19 11:25:14;;;;;;;2.70;2.40;;;15.60;99.90;;;;;;5032289;28;20025;-51
2021/09/19 11:27:45;;;;;;;2.88;2.20;;;15.70;99.90;;;;;;5032236;28;20033;-55
2021/09/19 11:30:12;;;;;;;2.13;1.90;;;15.70;99.90;;;;;;5032238;28;20044;-51
2021/09/19 11:32:38;;;;;;;3.45;2.13;;;15.80;99.90;;;;;;5032303;28;20144;-48
2021/09/19 11:35:08;;;;;;;2.60;2.33;;;15.80;99.90;;;;;;5014386;28;20029;-49
2021/09/19 11:37:34;;;;;;;2.63;2.20;;;15.80;99.90;;;;;;5031435;28;20026;-52
2021/09/19 11:40:00;;;;;;;5.35;2.40;;;15.90;99.90;;;;;;5032060;28;20017;-50
2021/09/19 11:42:27;;;;;;;3.13;2.22;;;15.70;99.90;;;;;;5032189;28;20117;-54
2021/09/19 11:44:55;;;;;;;4.65;2.65;;;15.90;99.90;;;;;;5032127;28;20025;-51
2021/09/19 11:47:23;;;;;;;2.65;2.10;;;15.90;99.90;;;;;;5031701;28;20014;-49
2021/09/19 11:49:52;;;;;;;5.15;2.40;;;16.00;99.90;;;;;;5031285;28;20033;-50
2021/09/19 11:52:19;;;;;;;5.60;2.33;;;16.00;99.90;;;;;;5031439;28;20502;-53
2021/09/19 11:54:45;;;;;;;3.55;2.28;;;16.00;99.90;;;;;;5031868;28;20548;-50
2021/09/19 11:57:12;;;;;;;6.38;2.63;;;16.10;99.90;;;;;;5031692;28;20080;-50
2021/09/19 11:59:44;;;;;;;3.30;2.20;;;16.10;99.90;;;;;;5013489;28;20033;-52
2021/09/19 12:02:11;;;;;;;2.58;2.38;;;16.20;99.90;;;;;;5013781;28;20048;-50
2021/09/19 12:04:37;;;;;;;3.45;2.17;;;16.20;99.90;;;;;;5031223;28;20021;-51
2021/09/19 12:07:03;;;;;;;3.55;2.20;;;16.20;99.90;;;;;;5031535;28;20053;-50
2021/09/19 12:09:29;;;;;;;2.08;1.80;;;16.10;99.90;;;;;;5031058;28;20065;-50
2021/09/19 12:11:56;;;;;;;3.20;2.15;;;16.10;99.90;;;;;;5013745;28;20048;-54
2021/09/19 12:14:29;;;;;;;3.85;2.30;;;16.10;99.90;;;;;;5031234;28;20021;-53
2021/09/19 12:17:09;;;;;;;3.92;2.47;;;16.10;99.90;;;;;;5031303;28;20029;-55
2021/09/19 12:19:37;;;;;;;4.72;2.75;;;16.10;99.90;;;;;;5030907;28;20036;-55
2021/09/19 12:22:23;;;;;;;3.63;2.22;;;16.00;99.90;;;;;;5031351;28;20075;-53
2021/09/19 12:24:53;;;;;;;3.60;2.72;;;16.00;99.90;;;;;;5030770;28;20060;-52
2021/09/19 12:27:31;;;;;;;2.33;1.90;;;16.10;99.90;;;;;;5030921;28;20161;-53
2021/09/19 12:30:13;;;;;;;3.05;2.28;;;16.10;99.90;;;;;;5030558;28;20060;-52
2021/09/19 12:32:46;;;;;;;3.20;2.22;;;16.10;99.90;;;;;;5012121;28;20026;-51
2021/09/19 12:35:16;;;;;;;2.80;2.00;;;16.00;99.90;;;;;;5030772;28;20022;-50
2021/09/19 12:37:46;;;;;;;5.63;2.30;;;16.10;99.90;;;;;;5012558;28;20044;-50
2021/09/19 12:40:20;;;;;;;5.38;2.30;;;16.20;99.90;;;;;;5030452;28;20052;-50
2021/09/19 12:42:47;;;;;;;4.95;2.28;;;16.20;99.90;;;;;;5030797;28;20018;-54
2021/09/19 12:45:15;;;;;;;3.08;1.88;;;16.20;99.90;;;;;;5030894;28;20037;-56
2021/09/19 12:47:41;;;;;;;3.95;2.35;;;16.20;99.90;;;;;;5030761;28;20029;-52
2021/09/19 12:50:12;;;;;;;3.25;2.05;;;16.20;99.90;;;;;;5030388;28;20021;-54